Time;durP1;ratioP1;P1;durP2;ratioP2;P2;SDS_P1;SDS_P2;PMS_P1;PMS_P2;Temp;Humidity;BMP_temperature;BMP_pressure;BME280_temperature;BME280_humidity;BME280_pressure;Samples;Min_cycle;Max_cycle;Signal;HPM_P1;HPM_P2
2021/01/30 00:06:17;;;;;;;2.15;1.95;;;;;;;;;;4943541;29;20193;-94
2021/01/30 00:12:27;;;;;;;4.47;2.00;;;;;;;;;;4942962;29;20237;-94
2021/01/30 00:22:51;;;;;;;2.33;2.20;;;;;;;;;;4962506;29;20188;-91
2021/01/30 00:29:00;;;;;;;2.20;2.00;;;;;;;;;;4962440;29;20192;-93
2021/01/30 01:04:35;;;;;;;5.50;5.00;;;;;;;;;;4797511;29;20306;-91
2021/01/30 01:10:44;;;;;;;7.28;6.00;;;;;;;;;;4816830;29;20208;-91
2021/01/30 01:38:21;;;;;;;5.75;5.25;;;;;;;;;;4847305;29;20188;-94
2021/01/30 01:45:34;;;;;;;7.47;6.78;;;;;;;;;;4846878;29;20272;-93
2021/01/30 02:06:17;;;;;;;7.80;6.60;;;;;;;;;;4851627;29;20268;-94
2021/01/30 02:20:39;;;;;;;6.25;5.55;;;;;;;;;;4865294;29;20267;-93
2021/01/30 02:46:31;;;;;;;1.80;1.70;;;;;;;;;;4901773;29;20549;-91
2021/01/30 03:03:43;;;;;;;1.42;1.33;;;;;;;;;;4901822;29;20222;-92
2021/01/30 03:06:18;;;;;;;1.60;1.50;;;;;;;;;;4902532;29;20207;-91
2021/01/30 03:08:49;;;;;;;1.50;1.40;;;;;;;;;;4910382;29;20566;-92
2021/01/30 03:11:21;;;;;;;1.60;1.50;;;;;;;;;;4960997;28;20271;-93
2021/01/30 03:13:53;;;;;;;2.55;2.35;;;;;;;;;;4960570;29;20255;-92
2021/01/30 03:16:24;;;;;;;3.47;3.17;;;;;;;;;;4960564;28;20405;-91
2021/01/30 03:18:57;;;;;;;3.30;3.00;;;;;;;;;;4961067;28;20292;-92
2021/01/30 03:21:25;;;;;;;3.75;3.45;;;;;;;;;;4960638;28;20240;-91
2021/01/30 03:23:52;;;;;;;4.00;3.60;;;;;;;;;;4960468;28;20499;-92
2021/01/30 03:26:22;;;;;;;4.38;3.97;;;;;;;;;;4951061;28;20610;-92
2021/01/30 03:28:50;;;;;;;5.00;4.60;;;;;;;;;;4940653;29;20595;-92
2021/01/30 03:31:18;;;;;;;4.80;4.30;;;;;;;;;;4940816;29;20194;-92
2021/01/30 03:33:45;;;;;;;4.20;3.85;;;;;;;;;;4941236;29;20202;-92
2021/01/30 03:36:13;;;;;;;4.93;4.53;;;;;;;;;;4940854;29;20183;-91
2021/01/30 03:38:40;;;;;;;4.50;4.10;;;;;;;;;;4940803;29;20283;-93
2021/01/30 03:41:07;;;;;;;4.70;4.30;;;;;;;;;;4940752;29;20217;-92
2021/01/30 03:43:35;;;;;;;6.40;5.90;;;;;;;;;;4941823;29;20210;-93
2021/01/30 03:46:02;;;;;;;5.15;4.72;;;;;;;;;;4940784;29;20225;-92
2021/01/30 03:48:29;;;;;;;6.28;5.72;;;;;;;;;;4944502;29;20209;-92
2021/01/30 03:51:05;;;;;;;5.35;4.88;;;;;;;;;;4944834;29;20541;-93
2021/01/30 03:53:33;;;;;;;5.38;4.88;;;;;;;;;;4944508;29;20209;-92
2021/01/30 03:56:00;;;;;;;5.20;4.80;;;;;;;;;;4944034;29;20281;-92
2021/01/30 03:58:27;;;;;;;5.47;4.97;;;;;;;;;;4944021;29;20449;-92
2021/01/30 04:00:54;;;;;;;5.45;4.95;;;;;;;;;;4944261;29;20258;-92
2021/01/30 04:03:21;;;;;;;5.75;5.28;;;;;;;;;;4944544;29;20343;-93
2021/01/30 04:05:48;;;;;;;5.47;5.07;;;;;;;;;;4943888;29;20245;-92
2021/01/30 04:08:15;;;;;;;6.40;5.90;;;;;;;;;;4943796;29;20265;-93
2021/01/30 04:10:43;;;;;;;5.63;5.20;;;;;;;;;;4944562;29;20542;-93
2021/01/30 04:13:11;;;;;;;6.13;5.63;;;;;;;;;;4944661;29;20243;-93
2021/01/30 04:15:41;;;;;;;6.55;5.93;;;;;;;;;;4943664;29;20222;-93
2021/01/30 04:18:09;;;;;;;5.80;5.32;;;;;;;;;;4944478;29;20463;-93
2021/01/30 04:20:37;;;;;;;5.85;5.35;;;;;;;;;;4944132;29;20194;-92
2021/01/30 04:23:05;;;;;;;6.30;5.72;;;;;;;;;;4943637;29;20563;-92
2021/01/30 04:25:32;;;;;;;4.78;4.38;;;;;;;;;;4943026;29;20241;-93
2021/01/30 04:28:00;;;;;;;4.80;4.40;;;;;;;;;;4944206;29;20574;-92
2021/01/30 04:30:29;;;;;;;4.40;4.10;;;;;;;;;;4943413;29;20194;-93
2021/01/30 04:32:57;;;;;;;4.88;4.50;;;;;;;;;;4943404;29;20182;-93
2021/01/30 04:35:31;;;;;;;4.78;4.38;;;;;;;;;;4943760;29;20212;-95
2021/01/30 04:37:59;;;;;;;5.10;4.65;;;;;;;;;;4944041;29;20507;-95
2021/01/30 04:40:32;;;;;;;5.00;4.60;;;;;;;;;;4943610;29;20187;-92
2021/01/30 04:43:15;;;;;;;5.32;4.82;;;;;;;;;;4943222;29;20218;-93
2021/01/30 04:45:57;;;;;;;6.90;5.72;;;;;;;;;;4943336;29;20230;-91
2021/01/30 04:48:49;;;;;;;5.53;5.03;;;;;;;;;;4943821;29;20190;-93
2021/01/30 04:51:21;;;;;;;6.28;5.78;;;;;;;;;;4940218;29;20281;-94
2021/01/30 04:54:13;;;;;;;5.90;5.40;;;;;;;;;;4943480;29;20639;-93
2021/01/30 04:57:02;;;;;;;5.85;5.35;;;;;;;;;;4942749;29;20242;-93
2021/01/30 04:59:42;;;;;;;5.80;5.30;;;;;;;;;;4943376;29;20217;-93
2021/01/30 05:02:16;;;;;;;5.40;5.00;;;;;;;;;;4943088;29;20235;-93
2021/01/30 05:04:46;;;;;;;5.70;5.20;;;;;;;;;;4943506;29;20217;-93
2021/01/30 05:07:22;;;;;;;5.80;5.30;;;;;;;;;;4943589;29;20205;-93
2021/01/30 05:09:55;;;;;;;5.28;4.78;;;;;;;;;;4942531;29;20601;-93
2021/01/30 05:12:27;;;;;;;4.90;4.47;;;;;;;;;;4942985;29;20214;-94
2021/01/30 05:15:02;;;;;;;5.00;4.50;;;;;;;;;;4942777;29;20231;-93
2021/01/30 05:17:34;;;;;;;5.95;5.35;;;;;;;;;;4942807;29;20548;-93
2021/01/30 05:20:06;;;;;;;5.07;4.68;;;;;;;;;;4943278;29;20206;-92
2021/01/30 05:22:38;;;;;;;3.78;3.47;;;;;;;;;;4942389;29;20308;-90
2021/01/30 05:25:10;;;;;;;5.45;4.95;;;;;;;;;;4943072;29;20260;-93
2021/01/30 05:28:04;;;;;;;4.75;4.35;;;;;;;;;;4942808;29;20268;-93
2021/01/30 05:30:41;;;;;;;5.97;4.65;;;;;;;;;;4942915;29;20580;-92
2021/01/30 05:33:20;;;;;;;4.25;3.80;;;;;;;;;;4942931;29;20521;-92
2021/01/30 05:35:54;;;;;;;4.97;4.57;;;;;;;;;;4943424;29;20205;-92
2021/01/30 05:38:39;;;;;;;4.32;3.80;;;;;;;;;;4943073;29;20202;-93
2021/01/30 05:41:10;;;;;;;5.10;4.60;;;;;;;;;;4943261;29;20221;-93
2021/01/30 05:43:48;;;;;;;5.32;4.78;;;;;;;;;;4942954;29;20198;-93
2021/01/30 05:46:23;;;;;;;5.05;4.65;;;;;;;;;;4942230;29;20182;-93
2021/01/30 05:48:50;;;;;;;4.97;4.57;;;;;;;;;;4942512;29;20263;-93
2021/01/30 05:51:22;;;;;;;4.70;4.30;;;;;;;;;;4942915;29;20219;-93
2021/01/30 05:53:50;;;;;;;4.95;4.55;;;;;;;;;;4942550;29;20544;-92
2021/01/30 05:56:18;;;;;;;5.50;5.03;;;;;;;;;;4942707;29;20556;-93
2021/01/30 05:58:47;;;;;;;4.88;4.47;;;;;;;;;;4942961;29;20272;-93
2021/01/30 06:01:25;;;;;;;4.32;3.92;;;;;;;;;;4941695;29;20197;-92
2021/01/30 06:04:03;;;;;;;5.93;4.68;;;;;;;;;;4942697;29;20206;-92
2021/01/30 06:06:40;;;;;;;5.05;4.55;;;;;;;;;;4942341;29;20241;-92
2021/01/30 06:09:12;;;;;;;5.40;4.65;;;;;;;;;;4941919;29;20264;-92
2021/01/30 06:11:46;;;;;;;5.07;4.57;;;;;;;;;;4942316;29;20202;-94
2021/01/30 06:14:33;;;;;;;5.10;4.60;;;;;;;;;;4942147;29;20230;-93
2021/01/30 06:17:01;;;;;;;5.00;4.50;;;;;;;;;;4941827;29;20265;-92
2021/01/30 06:19:32;;;;;;;4.15;3.70;;;;;;;;;;4942144;29;20206;-93
2021/01/30 06:22:13;;;;;;;4.15;3.75;;;;;;;;;;4941863;29;20237;-93
2021/01/30 06:24:44;;;;;;;3.72;3.42;;;;;;;;;;4941836;29;20201;-92
2021/01/30 06:27:22;;;;;;;4.00;3.60;;;;;;;;;;4941209;29;20248;-94
2021/01/30 06:29:51;;;;;;;4.70;4.22;;;;;;;;;;4941496;29;20486;-92
2021/01/30 06:32:34;;;;;;;5.13;4.18;;;;;;;;;;4941764;29;20202;-92
2021/01/30 06:35:21;;;;;;;5.05;4.65;;;;;;;;;;4942002;29;20202;-92
2021/01/30 06:37:51;;;;;;;5.30;4.43;;;;;;;;;;4940941;29;20548;-92
2021/01/30 06:40:23;;;;;;;5.22;4.63;;;;;;;;;;4941584;29;20213;-93
2021/01/30 06:42:53;;;;;;;5.57;4.30;;;;;;;;;;4941973;29;20217;-92
2021/01/30 06:45:28;;;;;;;5.40;4.10;;;;;;;;;;4941558;29;20304;-93
2021/01/30 06:47:56;;;;;;;4.80;4.40;;;;;;;;;;4940986;29;20185;-93
2021/01/30 06:50:34;;;;;;;4.38;3.97;;;;;;;;;;4941813;29;20257;-94
2021/01/30 06:53:15;;;;;;;5.28;4.78;;;;;;;;;;4940983;29;20185;-94
2021/01/30 06:55:42;;;;;;;4.22;3.83;;;;;;;;;;4942554;29;20205;-94
2021/01/30 06:58:26;;;;;;;4.45;4.05;;;;;;;;;;4943658;29;20539;-94
2021/01/30 07:01:06;;;;;;;4.85;4.45;;;;;;;;;;4942266;29;20277;-93
2021/01/30 07:04:02;;;;;;;5.15;4.43;;;;;;;;;;4941249;29;20236;-93
2021/01/30 07:06:37;;;;;;;4.95;4.45;;;;;;;;;;4941285;29;20274;-95
2021/01/30 07:09:18;;;;;;;5.57;5.07;;;;;;;;;;4941501;29;20563;-92
2021/01/30 07:11:59;;;;;;;5.20;4.70;;;;;;;;;;4941812;29;20202;-93
2021/01/30 07:15:13;;;;;;;5.43;4.55;;;;;;;;;;4940904;29;20600;-91
2021/01/30 07:18:04;;;;;;;5.38;4.88;;;;;;;;;;4933296;28;20206;-94
2021/01/30 07:20:43;;;;;;;4.30;3.90;;;;;;;;;;4925711;29;20560;-91
2021/01/30 07:23:15;;;;;;;5.07;4.57;;;;;;;;;;4944210;29;20229;-92
2021/01/30 07:25:56;;;;;;;4.93;4.47;;;;;;;;;;4944960;29;20233;-94
2021/01/30 07:28:26;;;;;;;5.05;4.65;;;;;;;;;;4946024;29;20265;-96
2021/01/30 07:31:03;;;;;;;4.97;4.43;;;;;;;;;;4944995;29;20218;-92
2021/01/30 07:33:36;;;;;;;4.63;4.20;;;;;;;;;;4944787;29;20245;-92
2021/01/30 07:36:09;;;;;;;4.43;4.03;;;;;;;;;;4944876;29;20217;-93
2021/01/30 07:38:42;;;;;;;4.25;3.85;;;;;;;;;;4945061;29;20206;-91
2021/01/30 07:41:19;;;;;;;3.30;3.00;;;;;;;;;;4945496;29;20225;-94
2021/01/30 07:43:54;;;;;;;4.13;3.15;;;;;;;;;;4944519;29;20226;-93
2021/01/30 07:46:27;;;;;;;4.70;3.20;;;;;;;;;;4944997;29;20284;-93
2021/01/30 07:48:57;;;;;;;3.50;3.20;;;;;;;;;;4945035;29;20213;-94
2021/01/30 07:51:46;;;;;;;3.20;2.95;;;;;;;;;;4944628;29;20220;-93
2021/01/30 07:54:14;;;;;;;2.90;2.70;;;;;;;;;;4944781;29;20205;-93
2021/01/30 07:56:58;;;;;;;2.70;2.50;;;;;;;;;;4944718;29;20202;-93
2021/01/30 07:59:54;;;;;;;2.88;2.33;;;;;;;;;;4944411;29;20459;-92
2021/01/30 08:03:08;;;;;;;2.60;2.40;;;;;;;;;;4942488;29;20515;-93
2021/01/30 08:05:38;;;;;;;2.60;2.40;;;;;;;;;;4944294;29;20201;-92
2021/01/30 08:08:16;;;;;;;2.78;2.58;;;;;;;;;;4943866;29;20188;-93
2021/01/30 08:11:00;;;;;;;3.00;2.80;;;;;;;;;;4943975;29;20219;-92
2021/01/30 08:13:47;;;;;;;4.20;3.80;;;;;;;;;;4943931;29;20208;-94
2021/01/30 08:16:25;;;;;;;5.22;4.07;;;;;;;;;;4885644;29;20224;-93
2021/01/30 08:18:54;;;;;;;5.45;4.95;;;;;;;;;;4886126;29;20239;-92
2021/01/30 08:21:41;;;;;;;4.05;3.65;;;;;;;;;;4885797;29;20215;-92
2021/01/30 08:24:20;;;;;;;3.63;3.33;;;;;;;;;;4885642;29;20231;-93
2021/01/30 08:27:08;;;;;;;4.00;3.63;;;;;;;;;;4885740;29;20227;-92
2021/01/30 08:29:47;;;;;;;4.07;3.67;;;;;;;;;;4886092;29;20444;-93
2021/01/30 08:32:37;;;;;;;4.78;4.32;;;;;;;;;;4885727;29;20212;-92
2021/01/30 08:35:44;;;;;;;3.15;2.95;;;;;;;;;;4931297;29;20270;-91
2021/01/30 08:38:27;;;;;;;4.03;3.63;;;;;;;;;;4943744;29;20467;-91
2021/01/30 08:40:57;;;;;;;4.07;3.78;;;;;;;;;;4943664;29;20269;-92
2021/01/30 08:43:37;;;;;;;3.63;2.97;;;;;;;;;;4943498;29;20240;-92
2021/01/30 08:46:28;;;;;;;3.13;2.88;;;;;;;;;;4942953;29;20333;-92
2021/01/30 08:49:06;;;;;;;3.85;3.45;;;;;;;;;;4943548;29;20349;-92
2021/01/30 08:51:34;;;;;;;2.92;2.65;;;;;;;;;;4943196;29;20296;-93
2021/01/30 08:54:31;;;;;;;2.72;2.53;;;;;;;;;;4943673;29;20206;-91
2021/01/30 08:57:00;;;;;;;2.17;1.98;;;;;;;;;;4943361;29;20284;-94
2021/01/30 08:59:48;;;;;;;2.80;2.60;;;;;;;;;;4943549;29;20202;-91
2021/01/30 09:02:51;;;;;;;3.33;3.03;;;;;;;;;;4943198;29;20277;-92
2021/01/30 09:05:40;;;;;;;3.42;3.10;;;;;;;;;;4943396;29;20201;-92
2021/01/30 09:09:00;;;;;;;2.85;2.65;;;;;;;;;;4942774;29;20198;-92
2021/01/30 09:11:41;;;;;;;2.60;2.40;;;;;;;;;;4943304;29;20281;-93
2021/01/30 09:14:37;;;;;;;2.42;2.13;;;;;;;;;;4942839;29;20284;-92
2021/01/30 09:17:26;;;;;;;2.88;2.58;;;;;;;;;;4943592;29;20198;-93
2021/01/30 09:20:06;;;;;;;2.85;2.65;;;;;;;;;;4942394;29;20187;-93
2021/01/30 09:22:56;;;;;;;2.63;2.42;;;;;;;;;;4942883;29;20201;-91
2021/01/30 09:25:36;;;;;;;2.63;2.40;;;;;;;;;;4942982;28;20291;-92
2021/01/30 09:28:06;;;;;;;3.03;2.20;;;;;;;;;;4942799;29;20216;-93
2021/01/30 09:30:39;;;;;;;2.50;2.30;;;;;;;;;;4942987;29;20228;-93
2021/01/30 09:33:16;;;;;;;2.50;2.30;;;;;;;;;;4942966;29;20478;-92
2021/01/30 09:35:45;;;;;;;13.15;9.23;;;;;;;;;;4942686;29;20264;-92
2021/01/30 09:38:35;;;;;;;32.03;20.08;;;;;;;;;;4942640;29;20201;-93
2021/01/30 09:41:24;;;;;;;26.05;17.67;;;;;;;;;;4942174;29;20204;-93
2021/01/30 09:44:07;;;;;;;8.52;5.53;;;;;;;;;;4942187;29;20226;-92
2021/01/30 09:46:38;;;;;;;4.53;4.13;;;;;;;;;;4942056;29;20208;-92
2021/01/30 09:49:07;;;;;;;3.70;3.25;;;;;;;;;;4942155;29;20562;-93
2021/01/30 09:51:41;;;;;;;4.25;3.58;;;;;;;;;;4942253;29;20209;-93
2021/01/30 09:54:10;;;;;;;4.47;4.07;;;;;;;;;;4942290;29;20205;-94
2021/01/30 09:56:37;;;;;;;3.70;3.40;;;;;;;;;;4941633;29;20225;-93
2021/01/30 09:59:06;;;;;;;3.25;3.00;;;;;;;;;;4942547;29;20216;-93
2021/01/30 10:01:38;;;;;;;2.90;2.70;;;;;;;;;;4942761;29;20457;-93
2021/01/30 10:04:16;;;;;;;2.97;2.78;;;;;;;;;;4942222;29;20254;-92
2021/01/30 10:06:45;;;;;;;3.47;3.10;;;;;;;;;;4941984;29;20194;-95
2021/01/30 10:09:18;;;;;;;2.30;2.15;;;;;;;;;;4941850;29;20217;-93
2021/01/30 10:11:49;;;;;;;2.70;2.50;;;;;;;;;;4942025;29;20198;-92
2021/01/30 10:14:19;;;;;;;2.70;2.50;;;;;;;;;;4942187;29;20240;-94
2021/01/30 10:16:58;;;;;;;3.08;2.88;;;;;;;;;;4942036;29;20202;-92
2021/01/30 10:19:28;;;;;;;3.50;2.58;;;;;;;;;;4941604;29;20177;-93
2021/01/30 10:21:56;;;;;;;3.30;3.00;;;;;;;;;;4941874;29;20182;-92
2021/01/30 10:24:26;;;;;;;2.88;2.67;;;;;;;;;;4941944;29;20276;-92
2021/01/30 10:26:56;;;;;;;3.63;3.10;;;;;;;;;;4941375;28;20234;-92
2021/01/30 10:29:24;;;;;;;3.97;3.60;;;;;;;;;;4939992;29;20567;-93
2021/01/30 10:31:55;;;;;;;4.95;3.70;;;;;;;;;;4941797;29;20285;-92
2021/01/30 10:34:27;;;;;;;3.05;2.85;;;;;;;;;;4941414;29;20224;-93
2021/01/30 10:37:00;;;;;;;3.45;3.22;;;;;;;;;;4941103;29;20254;-92
2021/01/30 10:39:27;;;;;;;3.60;3.30;;;;;;;;;;4941967;29;20280;-93
2021/01/30 10:42:00;;;;;;;3.30;2.95;;;;;;;;;;4942040;29;20198;-92
2021/01/30 10:44:29;;;;;;;3.00;2.47;;;;;;;;;;4941644;29;20230;-92
2021/01/30 10:47:00;;;;;;;3.17;2.97;;;;;;;;;;4941762;29;20528;-92
2021/01/30 10:49:29;;;;;;;3.55;3.30;;;;;;;;;;4941649;29;20214;-93
2021/01/30 10:52:11;;;;;;;3.38;3.08;;;;;;;;;;4941805;29;20206;-92
2021/01/30 10:54:42;;;;;;;5.22;4.35;;;;;;;;;;4941614;29;20563;-91
2021/01/30 10:57:29;;;;;;;3.40;3.10;;;;;;;;;;4944593;29;20190;-94
2021/01/30 11:00:01;;;;;;;3.75;3.42;;;;;;;;;;4905838;29;20226;-94
2021/01/30 11:02:44;;;;;;;3.88;3.33;;;;;;;;;;4917009;29;20258;-92
2021/01/30 11:05:29;;;;;;;3.20;2.90;;;;;;;;;;4924574;29;20585;-93
2021/01/30 11:08:00;;;;;;;3.53;3.22;;;;;;;;;;4925362;29;20213;-93
2021/01/30 11:10:42;;;;;;;3.22;2.92;;;;;;;;;;4925010;29;20556;-93
2021/01/30 11:13:16;;;;;;;2.80;2.60;;;;;;;;;;4925013;29;20214;-93
2021/01/30 11:15:44;;;;;;;2.83;2.63;;;;;;;;;;4924563;29;20245;-93
2021/01/30 11:18:37;;;;;;;3.33;2.78;;;;;;;;;;4924641;29;20215;-93
2021/01/30 11:21:07;;;;;;;4.05;2.63;;;;;;;;;;4924598;29;20617;-93
2021/01/30 11:23:48;;;;;;;3.28;2.97;;;;;;;;;;4929879;29;20222;-93
2021/01/30 11:26:41;;;;;;;3.13;2.83;;;;;;;;;;4959299;28;20232;-90
2021/01/30 11:29:37;;;;;;;2.65;2.45;;;;;;;;;;4962480;29;20213;-92
2021/01/30 11:32:08;;;;;;;3.65;3.10;;;;;;;;;;4944372;29;20202;-93
2021/01/30 11:34:36;;;;;;;3.05;2.75;;;;;;;;;;4943997;29;20198;-92
2021/01/30 11:37:04;;;;;;;4.47;4.07;;;;;;;;;;4963952;29;20340;-94
2021/01/30 11:39:35;;;;;;;4.80;2.83;;;;;;;;;;4963447;28;20601;-93
2021/01/30 11:42:13;;;;;;;3.67;3.30;;;;;;;;;;4963834;28;20205;-91
2021/01/30 11:44:40;;;;;;;3.42;3.13;;;;;;;;;;4963882;28;20233;-93
2021/01/30 11:47:25;;;;;;;3.55;3.25;;;;;;;;;;4963616;28;20236;-93
2021/01/30 11:50:29;;;;;;;3.30;3.00;;;;;;;;;;4964254;28;20201;-93
2021/01/30 11:53:31;;;;;;;3.13;2.80;;;;;;;;;;4963750;29;20197;-91
2021/01/30 11:55:59;;;;;;;2.80;2.60;;;;;;;;;;4886645;29;20215;-92
2021/01/30 11:58:26;;;;;;;3.13;2.88;;;;;;;;;;4939935;29;20296;-93
2021/01/30 12:00:53;;;;;;;11.15;7.68;;;;;;;;;;4963760;28;20285;-91
2021/01/30 12:03:30;;;;;;;3.50;3.20;;;;;;;;;;4962996;29;20536;-93
2021/01/30 12:05:59;;;;;;;2.88;2.67;;;;;;;;;;4962864;28;20459;-93
2021/01/30 12:08:32;;;;;;;5.43;4.93;;;;;;;;;;4971819;28;20211;-92
2021/01/30 12:11:05;;;;;;;5.20;4.70;;;;;;;;;;4974316;28;20605;-94
2021/01/30 12:13:33;;;;;;;4.70;4.30;;;;;;;;;;4961471;29;20632;-92
2021/01/30 12:16:00;;;;;;;5.35;4.85;;;;;;;;;;5088114;23;20255;-92
2021/01/30 12:18:29;;;;;;;5.22;4.72;;;;;;;;;;5006001;28;20290;-93
2021/01/30 12:20:57;;;;;;;7.50;6.85;;;;;;;;;;5021819;28;20194;-93
2021/01/30 12:23:24;;;;;;;5.45;4.97;;;;;;;;;;4982084;28;20208;-92
2021/01/30 12:25:51;;;;;;;5.18;4.78;;;;;;;;;;4987440;28;20301;-93
2021/01/30 12:28:22;;;;;;;4.82;4.45;;;;;;;;;;5001304;28;20213;-94
2021/01/30 12:30:50;;;;;;;3.38;3.10;;;;;;;;;;5000270;28;20570;-93
2021/01/30 12:33:17;;;;;;;3.78;3.47;;;;;;;;;;5002127;28;20542;-94
2021/01/30 12:35:45;;;;;;;3.83;3.50;;;;;;;;;;5002323;28;20287;-93
2021/01/30 12:38:16;;;;;;;3.90;3.60;;;;;;;;;;5092743;23;20693;-94
2021/01/30 12:44:27;;;;;;;3.42;3.13;;;;;;;;;;4978905;28;20207;-93
2021/01/30 12:46:54;;;;;;;3.78;3.47;;;;;;;;;;4981581;28;20210;-93
2021/01/30 12:49:22;;;;;;;3.53;3.13;;;;;;;;;;4981930;28;20274;-93
2021/01/30 12:51:49;;;;;;;4.40;4.00;;;;;;;;;;4982195;28;20200;-94
2021/01/30 12:54:30;;;;;;;3.67;3.28;;;;;;;;;;4981444;28;20596;-94
2021/01/30 12:56:57;;;;;;;3.83;3.53;;;;;;;;;;4980741;28;20220;-95
2021/01/30 12:59:24;;;;;;;5.32;4.82;;;;;;;;;;4981997;28;20206;-94
2021/01/30 13:01:51;;;;;;;5.18;4.70;;;;;;;;;;4981697;28;20200;-91
2021/01/30 13:04:18;;;;;;;5.53;5.03;;;;;;;;;;4980549;28;20668;-92
2021/01/30 13:06:46;;;;;;;3.80;3.47;;;;;;;;;;4981181;28;20208;-92
2021/01/30 13:09:14;;;;;;;4.93;4.47;;;;;;;;;;4967908;28;20316;-94
2021/01/30 13:11:42;;;;;;;3.85;3.55;;;;;;;;;;4963133;29;20308;-94
2021/01/30 13:14:09;;;;;;;5.10;3.78;;;;;;;;;;4962890;28;20208;-94
2021/01/30 13:16:37;;;;;;;4.85;4.38;;;;;;;;;;4959080;28;20778;-94
2021/01/30 13:19:04;;;;;;;4.88;4.38;;;;;;;;;;4957134;28;20217;-94
2021/01/30 13:21:32;;;;;;;7.10;5.95;;;;;;;;;;4960508;29;20205;-94
2021/01/30 13:23:59;;;;;;;5.60;4.90;;;;;;;;;;4963035;28;20189;-93
2021/01/30 13:26:26;;;;;;;3.63;3.33;;;;;;;;;;4962318;28;20260;-94
2021/01/30 13:29:14;;;;;;;4.57;3.85;;;;;;;;;;4964451;29;20215;-94
2021/01/30 13:32:16;;;;;;;3.13;2.92;;;;;;;;;;4969284;28;20193;-96
2021/01/30 13:34:43;;;;;;;10.20;7.22;;;;;;;;;;4916857;29;20260;-95
2021/01/30 13:37:10;;;;;;;10.77;8.55;;;;;;;;;;4961863;28;20292;-93
2021/01/30 13:39:38;;;;;;;57.30;45.30;;;;;;;;;;4961496;28;20233;-94
2021/01/30 13:42:05;;;;;;;26.52;20.60;;;;;;;;;;4963459;29;20276;-94
2021/01/30 13:44:33;;;;;;;31.17;23.63;;;;;;;;;;4962414;28;20237;-94
2021/01/30 13:49:42;;;;;;;23.98;17.20;;;;;;;;;;4939633;28;20197;-94
2021/01/30 13:52:11;;;;;;;75.25;59.80;;;;;;;;;;4960855;29;20201;-92
2021/01/30 13:54:39;;;;;;;23.85;21.30;;;;;;;;;;4962572;29;20197;-94
2021/01/30 13:57:06;;;;;;;27.88;25.15;;;;;;;;;;4961018;29;20209;-95
2021/01/30 13:59:40;;;;;;;7.18;6.47;;;;;;;;;;4964160;29;20288;-94
2021/01/30 14:02:10;;;;;;;8.77;7.95;;;;;;;;;;4963002;29;20205;-96
2021/01/30 14:04:37;;;;;;;25.20;20.92;;;;;;;;;;4962702;29;20229;-94
2021/01/30 14:07:06;;;;;;;8.13;7.32;;;;;;;;;;4961739;29;20280;-93
2021/01/30 14:12:15;;;;;;;6.82;6.00;;;;;;;;;;4951144;29;20205;-95
2021/01/30 14:14:43;;;;;;;4.55;4.13;;;;;;;;;;4961875;29;20263;-94
2021/01/30 14:17:13;;;;;;;5.10;4.53;;;;;;;;;;4960009;29;20736;-95
2021/01/30 14:19:40;;;;;;;21.08;19.02;;;;;;;;;;4962755;29;20606;-96
2021/01/30 14:22:07;;;;;;;11.77;10.70;;;;;;;;;;4961421;28;20209;-92
2021/01/30 14:24:35;;;;;;;9.20;8.35;;;;;;;;;;4961045;29;20654;-94
2021/01/30 14:27:02;;;;;;;44.10;33.20;;;;;;;;;;4961712;29;20292;-95
2021/01/30 14:29:33;;;;;;;8.65;7.75;;;;;;;;;;4962408;29;20216;-93
2021/01/30 14:34:47;;;;;;;3.22;2.75;;;;;;;;;;4933393;28;20205;-95
2021/01/30 14:37:17;;;;;;;4.85;3.10;;;;;;;;;;4959116;28;20296;-94
2021/01/30 14:39:46;;;;;;;2.70;2.50;;;;;;;;;;4941063;29;20307;-93
2021/01/30 14:42:19;;;;;;;3.50;3.20;;;;;;;;;;4958284;29;20205;-94
2021/01/30 14:45:12;;;;;;;4.65;3.40;;;;;;;;;;4960777;29;20312;-93
2021/01/30 14:47:40;;;;;;;3.38;2.97;;;;;;;;;;4882867;29;20543;-94
2021/01/30 14:50:19;;;;;;;3.78;3.28;;;;;;;;;;4882034;29;20229;-94
2021/01/30 14:52:46;;;;;;;7.13;4.03;;;;;;;;;;4875220;29;20302;-94
2021/01/30 14:55:29;;;;;;;5.05;4.55;;;;;;;;;;4881142;29;20211;-95
2021/01/30 14:58:00;;;;;;;4.93;4.00;;;;;;;;;;4883494;29;20275;-96
2021/01/30 15:00:39;;;;;;;4.45;4.07;;;;;;;;;;4885782;29;20575;-95
2021/01/30 15:06:57;;;;;;;4.43;4.03;;;;;;;;;;4777200;30;20287;-93
2021/01/30 15:09:25;;;;;;;4.63;3.83;;;;;;;;;;4774971;29;20311;-95
2021/01/30 15:11:52;;;;;;;3.92;3.53;;;;;;;;;;4771157;30;20509;-92
2021/01/30 15:14:19;;;;;;;6.28;5.55;;;;;;;;;;4756431;30;20208;-91
2021/01/30 15:16:49;;;;;;;4.43;3.55;;;;;;;;;;4757164;30;20273;-94
2021/01/30 15:19:17;;;;;;;5.30;3.72;;;;;;;;;;4757457;30;20212;-94
2021/01/30 15:21:45;;;;;;;4.22;3.83;;;;;;;;;;4756282;30;20213;-92
2021/01/30 15:24:30;;;;;;;3.92;3.58;;;;;;;;;;4763417;29;20361;-95
2021/01/30 15:27:00;;;;;;;4.03;3.72;;;;;;;;;;4845848;29;20232;-93
2021/01/30 15:29:28;;;;;;;3.80;3.50;;;;;;;;;;4845978;29;20257;-92
2021/01/30 15:31:56;;;;;;;4.47;4.07;;;;;;;;;;4791774;29;20207;-94
2021/01/30 15:34:23;;;;;;;3.72;3.42;;;;;;;;;;4792075;29;20488;-92
2021/01/30 15:36:53;;;;;;;4.00;3.50;;;;;;;;;;4837902;29;20215;-92
2021/01/30 15:39:20;;;;;;;3.42;3.15;;;;;;;;;;4882410;29;20685;-91
2021/01/30 15:41:51;;;;;;;3.50;3.20;;;;;;;;;;4882790;29;20224;-92
2021/01/30 15:44:18;;;;;;;3.80;3.50;;;;;;;;;;4896407;29;20673;-93
2021/01/30 15:46:45;;;;;;;4.95;3.90;;;;;;;;;;4906766;29;20231;-93
2021/01/30 15:49:12;;;;;;;4.00;3.67;;;;;;;;;;4913359;29;20205;-92
2021/01/30 15:51:46;;;;;;;5.60;4.50;;;;;;;;;;4964032;28;20205;-92
2021/01/30 15:54:14;;;;;;;5.07;4.28;;;;;;;;;;4963672;29;20207;-91
2021/01/30 15:56:41;;;;;;;4.90;4.38;;;;;;;;;;4962823;29;20193;-93
2021/01/30 15:59:09;;;;;;;5.30;4.80;;;;;;;;;;4963562;28;20217;-91
2021/01/30 16:01:36;;;;;;;4.72;4.28;;;;;;;;;;4963310;29;20547;-94
2021/01/30 16:04:04;;;;;;;7.72;6.85;;;;;;;;;;4962872;28;20622;-89
2021/01/30 16:06:32;;;;;;;7.57;6.38;;;;;;;;;;4963056;29;20287;-92
2021/01/30 16:09:53;;;;;;;5.35;4.55;;;;;;;;;;4971431;28;20325;-96
2021/01/30 16:12:20;;;;;;;8.80;6.43;;;;;;;;;;4964550;29;20205;-94
2021/01/30 16:14:59;;;;;;;7.85;5.80;;;;;;;;;;4964454;28;20209;-95
2021/01/30 16:17:26;;;;;;;6.40;4.90;;;;;;;;;;4961695;28;20232;-92
2021/01/30 16:19:53;;;;;;;6.10;5.15;;;;;;;;;;4963096;28;20251;-92
2021/01/30 16:22:20;;;;;;;5.78;4.57;;;;;;;;;;4967265;28;20193;-94
2021/01/30 16:24:48;;;;;;;5.55;4.57;;;;;;;;;;4965348;28;20276;-92
2021/01/30 16:27:15;;;;;;;4.82;4.35;;;;;;;;;;4975226;28;20223;-91
2021/01/30 16:29:42;;;;;;;7.18;6.22;;;;;;;;;;4981715;28;20200;-92
2021/01/30 16:32:14;;;;;;;6.40;5.10;;;;;;;;;;4953710;28;20555;-93
2021/01/30 16:34:41;;;;;;;5.78;4.70;;;;;;;;;;4961570;28;20201;-92
2021/01/30 16:37:09;;;;;;;5.93;4.93;;;;;;;;;;4978541;28;20196;-92
2021/01/30 16:39:38;;;;;;;4.95;4.38;;;;;;;;;;4961872;28;20320;-93
2021/01/30 16:42:08;;;;;;;4.22;3.83;;;;;;;;;;4962361;29;20268;-91
2021/01/30 16:44:36;;;;;;;6.93;4.88;;;;;;;;;;4974423;28;20193;-92
2021/01/30 16:47:03;;;;;;;5.50;4.57;;;;;;;;;;4978627;28;20235;-91
2021/01/30 16:49:32;;;;;;;4.93;4.40;;;;;;;;;;4981549;28;20208;-94
2021/01/30 16:51:59;;;;;;;4.60;3.92;;;;;;;;;;4980696;28;20452;-95
2021/01/30 16:54:26;;;;;;;4.25;3.45;;;;;;;;;;4962703;28;20204;-92
2021/01/30 16:56:56;;;;;;;4.30;3.60;;;;;;;;;;4960843;29;20197;-93
2021/01/30 16:59:27;;;;;;;3.58;3.28;;;;;;;;;;4961807;29;20259;-94
2021/01/30 17:01:54;;;;;;;3.78;3.47;;;;;;;;;;4970655;28;20642;-94
2021/01/30 17:04:28;;;;;;;3.30;3.00;;;;;;;;;;4982596;28;20189;-96
2021/01/30 17:06:56;;;;;;;4.25;3.35;;;;;;;;;;4982159;28;20487;-92
2021/01/30 17:09:23;;;;;;;3.05;2.85;;;;;;;;;;4983291;28;20207;-94
2021/01/30 17:11:52;;;;;;;3.92;3.58;;;;;;;;;;4982770;28;20572;-94
2021/01/30 17:14:19;;;;;;;5.03;4.30;;;;;;;;;;4979416;28;20227;-91
2021/01/30 17:16:49;;;;;;;4.22;3.83;;;;;;;;;;4971877;28;20251;-90
2021/01/30 17:19:20;;;;;;;4.55;4.00;;;;;;;;;;4965435;28;20201;-90
2021/01/30 17:21:47;;;;;;;4.00;3.60;;;;;;;;;;4962594;29;20611;-92
2021/01/30 17:24:18;;;;;;;3.85;3.53;;;;;;;;;;4961821;29;20197;-93
2021/01/30 17:26:46;;;;;;;5.00;4.53;;;;;;;;;;4961145;29;20311;-94
2021/01/30 17:29:13;;;;;;;4.55;4.13;;;;;;;;;;4962399;29;20587;-94
2021/01/30 17:31:47;;;;;;;5.20;4.55;;;;;;;;;;4942626;29;20182;-93
2021/01/30 17:34:16;;;;;;;5.47;4.80;;;;;;;;;;4942552;29;20284;-95
2021/01/30 17:36:45;;;;;;;6.95;4.28;;;;;;;;;;4944846;29;20264;-95
2021/01/30 17:39:15;;;;;;;4.07;3.70;;;;;;;;;;4957559;28;20279;-95
2021/01/30 17:42:02;;;;;;;4.55;4.15;;;;;;;;;;4973258;28;20597;-95
2021/01/30 17:44:30;;;;;;;4.38;3.72;;;;;;;;;;4974232;28;20287;-93
2021/01/30 17:46:57;;;;;;;4.53;4.13;;;;;;;;;;4962881;28;20573;-94
2021/01/30 17:49:26;;;;;;;4.15;3.75;;;;;;;;;;4971833;28;20293;-93
2021/01/30 17:51:53;;;;;;;7.32;5.63;;;;;;;;;;4960726;28;20193;-92
2021/01/30 17:54:20;;;;;;;5.55;4.25;;;;;;;;;;4961220;29;20189;-94
2021/01/30 17:56:49;;;;;;;6.65;4.80;;;;;;;;;;4962988;28;20220;-91
2021/01/30 17:59:16;;;;;;;5.47;4.28;;;;;;;;;;4954849;28;20276;-91
2021/01/30 18:01:44;;;;;;;4.13;3.67;;;;;;;;;;4961141;28;20250;-90
2021/01/30 18:04:11;;;;;;;6.68;4.85;;;;;;;;;;4960818;29;20527;-90
2021/01/30 18:09:36;;;;;;;5.47;4.72;;;;;;;;;;4960518;28;20681;-92
2021/01/30 18:12:05;;;;;;;7.25;5.45;;;;;;;;;;4960686;29;20261;-93
2021/01/30 18:14:32;;;;;;;7.50;6.03;;;;;;;;;;4961005;29;20554;-93